createdAt,value
2022-07-26T00:01:25.947Z,2.60
2022-07-26T00:04:01.987Z,2.10
2022-07-26T00:06:30.796Z,2.30
2022-07-26T00:08:58.906Z,2.10
2022-07-26T00:11:27.617Z,2.03
2022-07-26T00:13:55.777Z,2.03
2022-07-26T00:16:24.410Z,2.08
2022-07-26T00:18:52.874Z,2.00
2022-07-26T00:21:23.091Z,1.90
2022-07-26T00:23:51.289Z,2.85
2022-07-26T00:29:06.423Z,2.22
2022-07-26T00:31:35.479Z,2.10
2022-07-26T00:34:04.325Z,2.33
2022-07-26T00:36:33.900Z,1.80
2022-07-26T00:39:02.283Z,2.30
2022-07-26T00:41:30.960Z,2.30
2022-07-26T00:44:01.666Z,2.17
2022-07-26T00:46:30.762Z,2.10
2022-07-26T00:48:59.300Z,1.90
2022-07-26T00:51:28.762Z,2.03
2022-07-26T00:53:58.789Z,2.33
2022-07-26T00:56:27.927Z,2.10
2022-07-26T00:58:56.529Z,2.10
2022-07-26T01:01:24.863Z,2.40
2022-07-26T01:03:54.642Z,1.92
2022-07-26T01:06:27.353Z,1.85
2022-07-26T01:08:57.759Z,1.90
2022-07-26T01:11:25.966Z,2.08
2022-07-26T01:13:54.532Z,2.28
2022-07-26T01:16:23.191Z,2.22
2022-07-26T01:18:51.563Z,2.15
2022-07-26T01:21:20.148Z,2.22
2022-07-26T01:23:50.096Z,2.22
2022-07-26T01:26:18.254Z,2.28
2022-07-26T01:28:49.912Z,2.00
2022-07-26T01:31:18.408Z,2.08
2022-07-26T01:33:47.316Z,1.77
2022-07-26T01:36:15.630Z,2.03
2022-07-26T01:38:44.734Z,2.17
2022-07-26T01:41:14.372Z,1.85
2022-07-26T01:43:42.547Z,1.80
2022-07-26T01:46:13.735Z,2.25
2022-07-26T01:48:42.563Z,2.35
2022-07-26T01:51:11.155Z,2.55
2022-07-26T01:53:39.680Z,2.00
2022-07-26T01:56:08.749Z,2.40
2022-07-26T01:58:38.265Z,2.22
2022-07-26T02:01:06.966Z,1.90
2022-07-26T02:03:35.319Z,2.05
2022-07-26T02:06:04.407Z,2.05
2022-07-26T02:08:33.601Z,1.80
2022-07-26T02:11:03.418Z,2.08
2022-07-26T02:13:33.775Z,1.88
2022-07-26T02:16:04.900Z,2.13
2022-07-26T02:18:33.625Z,2.15
2022-07-26T02:24:09.507Z,2.00
2022-07-26T02:26:37.784Z,1.80
2022-07-26T02:29:05.833Z,1.98
2022-07-26T02:31:35.802Z,1.92
2022-07-26T02:34:03.985Z,1.58
2022-07-26T02:36:32.951Z,1.98
2022-07-26T02:39:01.086Z,2.38
2022-07-26T02:41:29.194Z,2.05
2022-07-26T02:43:57.730Z,1.90
2022-07-26T02:46:25.920Z,2.05
2022-07-26T02:48:55.838Z,2.15
2022-07-26T02:51:24.084Z,2.58
2022-07-26T02:53:52.696Z,2.15
2022-07-26T02:56:20.787Z,1.48
2022-07-26T02:58:49.389Z,1.98
2022-07-26T03:01:18.096Z,2.22
2022-07-26T03:03:50.588Z,2.30
2022-07-26T03:06:21.212Z,2.15
2022-07-26T03:08:50.093Z,2.00
2022-07-26T03:11:18.182Z,2.08
2022-07-26T03:13:46.771Z,1.85
2022-07-26T03:16:17.833Z,1.73
2022-07-26T03:18:50.523Z,2.17
2022-07-26T03:21:20.043Z,2.10
2022-07-26T03:23:48.597Z,2.00
2022-07-26T03:26:17.293Z,2.42
2022-07-26T03:28:46.001Z,2.30
2022-07-26T03:31:14.766Z,1.75
2022-07-26T03:33:43.310Z,2.38
2022-07-26T03:36:15.471Z,1.77
2022-07-26T03:38:45.816Z,2.30
2022-07-26T03:41:14.318Z,2.20
2022-07-26T03:43:43.031Z,2.15
2022-07-26T03:46:11.270Z,2.17
2022-07-26T03:51:29.145Z,1.70
2022-07-26T03:53:59.027Z,1.90
2022-07-26T03:56:31.772Z,1.88
2022-07-26T03:59:02.400Z,1.73
2022-07-26T04:01:31.813Z,2.00
2022-07-26T04:04:00.236Z,2.17
2022-07-26T04:06:30.057Z,2.00
2022-07-26T04:08:59.515Z,2.13
2022-07-26T04:11:28.697Z,1.83
2022-07-26T04:13:57.682Z,1.58
2022-07-26T04:16:26.009Z,1.83
2022-07-26T04:18:55.006Z,1.58
2022-07-26T04:21:23.842Z,1.73
2022-07-26T04:23:52.758Z,1.70
2022-07-26T04:26:22.578Z,1.80
2022-07-26T04:28:51.148Z,1.75
2022-07-26T04:31:19.867Z,1.67
2022-07-26T04:33:48.372Z,1.98
2022-07-26T04:36:16.872Z,1.65
2022-07-26T04:38:45.957Z,1.85
2022-07-26T04:41:14.749Z,2.15
2022-07-26T04:43:44.749Z,1.90
2022-07-26T04:46:12.889Z,1.63
2022-07-26T04:48:41.525Z,2.03
2022-07-26T04:51:09.669Z,2.03
2022-07-26T04:53:38.225Z,1.88
2022-07-26T04:56:07.517Z,2.10
2022-07-26T04:58:36.093Z,1.80
2022-07-26T05:01:23.933Z,2.75
2022-07-26T05:03:52.085Z,1.65
2022-07-26T05:06:20.591Z,2.10
2022-07-26T05:08:48.698Z,1.95
2022-07-26T05:11:17.197Z,1.80
2022-07-26T05:13:45.442Z,1.70
2022-07-26T05:16:13.975Z,1.75
2022-07-26T05:18:48.890Z,1.98
2022-07-26T05:21:18.858Z,1.63
2022-07-26T05:23:47.405Z,1.60
2022-07-26T05:26:15.503Z,1.77
2022-07-26T05:28:44.064Z,2.20
2022-07-26T05:31:12.400Z,1.65
2022-07-26T05:33:41.140Z,1.70
2022-07-26T05:36:10.877Z,1.63
2022-07-26T05:38:39.495Z,1.83
2022-07-26T05:41:07.861Z,1.85
2022-07-26T05:43:41.704Z,2.15
2022-07-26T05:46:11.612Z,1.80
2022-07-26T05:48:40.646Z,1.90
2022-07-26T05:51:10.948Z,1.60
2022-07-26T05:53:40.204Z,2.20
2022-07-26T05:56:08.910Z,1.90
2022-07-26T05:58:38.214Z,1.70
2022-07-26T06:01:07.073Z,1.90
2022-07-26T06:03:35.584Z,1.80
2022-07-26T06:06:04.060Z,2.03
2022-07-26T06:08:34.537Z,1.73
2022-07-26T06:11:02.651Z,1.60
2022-07-26T06:13:30.761Z,1.95
2022-07-26T06:15:59.271Z,2.00
2022-07-26T06:18:27.978Z,1.73
2022-07-26T06:20:56.187Z,1.65
2022-07-26T06:23:34.651Z,2.10
2022-07-26T06:26:05.792Z,2.20
2022-07-26T06:28:34.403Z,1.75
2022-07-26T06:31:03.035Z,1.77
2022-07-26T06:33:31.670Z,1.50
2022-07-26T06:36:00.699Z,1.70
2022-07-26T06:38:28.959Z,1.67
2022-07-26T06:40:57.111Z,1.50
2022-07-26T06:43:26.618Z,1.58
2022-07-26T06:45:54.859Z,1.23
2022-07-26T06:48:23.525Z,1.60
2022-07-26T06:50:51.819Z,1.42
2022-07-26T06:53:19.894Z,1.45
2022-07-26T06:55:48.455Z,1.50
2022-07-26T06:58:16.534Z,1.60
2022-07-26T07:00:46.129Z,1.60
2022-07-26T07:03:14.292Z,1.40
2022-07-26T07:05:46.709Z,1.40
2022-07-26T07:08:18.030Z,1.55
2022-07-26T07:10:46.172Z,1.70
2022-07-26T07:13:15.144Z,1.52
2022-07-26T07:15:43.221Z,1.42
2022-07-26T07:18:13.462Z,1.65
2022-07-26T07:20:42.231Z,1.45
2022-07-26T07:23:10.300Z,1.50
2022-07-26T07:25:38.830Z,1.35
2022-07-26T07:28:08.405Z,1.75
2022-07-26T07:30:36.906Z,1.60
2022-07-26T07:33:06.916Z,1.55
2022-07-26T07:35:36.483Z,1.60
2022-07-26T07:38:05.293Z,1.92
2022-07-26T07:40:34.522Z,1.58
2022-07-26T07:43:02.902Z,1.40
2022-07-26T07:45:31.311Z,1.67
2022-07-26T07:47:59.377Z,1.45
2022-07-26T07:50:28.451Z,1.10
2022-07-26T07:53:01.979Z,1.42
2022-07-26T07:55:46.862Z,1.08
2022-07-26T07:58:17.463Z,1.42
2022-07-26T08:00:48.142Z,1.20
2022-07-26T08:03:17.837Z,1.50
2022-07-26T08:05:49.872Z,1.27
2022-07-26T08:08:22.222Z,1.45
2022-07-26T08:10:52.201Z,1.23
2022-07-26T08:13:21.715Z,1.83
2022-07-26T08:15:51.102Z,1.80
2022-07-26T08:18:22.234Z,1.55
2022-07-26T08:20:52.258Z,1.63
2022-07-26T08:23:22.917Z,1.50
2022-07-26T08:26:01.897Z,1.40
2022-07-26T08:28:52.592Z,1.50
2022-07-26T08:31:22.014Z,1.30
2022-07-26T08:33:50.379Z,1.20
2022-07-26T08:36:19.320Z,1.10
2022-07-26T08:38:49.660Z,1.27
2022-07-26T08:41:19.156Z,1.20
2022-07-26T08:43:52.742Z,1.50
2022-07-26T08:46:26.483Z,1.10
2022-07-26T08:48:56.119Z,1.60
2022-07-26T08:51:25.412Z,1.38
2022-07-26T08:54:04.044Z,1.40
2022-07-26T08:56:33.819Z,1.20
2022-07-26T08:59:06.458Z,1.50
2022-07-26T09:01:35.839Z,1.23
2022-07-26T09:04:30.918Z,1.30
2022-07-26T09:07:03.691Z,1.17
2022-07-26T09:09:35.008Z,1.10
2022-07-26T09:12:16.277Z,1.35
2022-07-26T09:14:47.138Z,1.20
2022-07-26T09:17:16.179Z,1.30
2022-07-26T09:19:45.056Z,1.20
2022-07-26T09:22:16.468Z,1.30
2022-07-26T09:24:48.189Z,1.20
2022-07-26T09:27:19.058Z,1.23
2022-07-26T09:29:50.192Z,1.10
2022-07-26T09:32:20.466Z,1.40
2022-07-26T09:34:53.475Z,1.33
2022-07-26T09:37:34.938Z,1.63
2022-07-26T09:40:08.207Z,1.48
2022-07-26T09:42:36.931Z,1.40
2022-07-26T09:45:17.347Z,1.52
2022-07-26T09:47:45.510Z,1.20
2022-07-26T09:50:16.280Z,1.50
2022-07-26T09:53:08.353Z,1.60
2022-07-26T09:55:54.652Z,1.60
2022-07-26T09:58:24.566Z,1.55
2022-07-26T10:00:52.798Z,1.30
2022-07-26T10:03:21.375Z,1.70
2022-07-26T10:05:49.894Z,1.65
2022-07-26T10:08:20.242Z,1.38
2022-07-26T10:10:55.749Z,1.48
2022-07-26T10:13:25.004Z,1.58
2022-07-26T10:15:53.738Z,1.15
2022-07-26T10:18:45.014Z,1.55
2022-07-26T10:21:21.353Z,1.48
2022-07-26T10:23:51.756Z,1.50
2022-07-26T10:26:43.082Z,1.55
2022-07-26T10:29:28.656Z,1.38
2022-07-26T10:32:17.320Z,1.20
2022-07-26T10:34:46.848Z,1.40
2022-07-26T10:37:29.659Z,1.08
2022-07-26T10:40:23.096Z,1.20
2022-07-26T10:42:52.737Z,1.15
2022-07-26T10:45:24.234Z,1.40
2022-07-26T10:48:12.643Z,1.50
2022-07-26T10:50:42.442Z,1.40
2022-07-26T10:53:12.663Z,1.40
2022-07-26T10:55:50.965Z,0.88
2022-07-26T10:58:21.257Z,1.30
2022-07-26T11:01:00.478Z,0.98
2022-07-26T11:03:39.098Z,0.85
2022-07-26T11:06:15.168Z,1.13
2022-07-26T11:08:48.102Z,0.70
2022-07-26T11:11:30.251Z,1.27
2022-07-26T11:14:08.818Z,1.05
2022-07-26T11:16:41.524Z,1.17
2022-07-26T11:19:17.245Z,1.05
2022-07-26T11:21:46.354Z,0.93
2022-07-26T11:24:15.188Z,1.27
2022-07-26T11:26:44.457Z,0.88
2022-07-26T11:29:17.468Z,0.95
2022-07-26T11:32:00.031Z,0.70
2022-07-26T11:34:35.183Z,1.10
2022-07-26T11:37:05.846Z,0.90
2022-07-26T11:39:36.445Z,1.25
2022-07-26T11:42:07.098Z,1.00
2022-07-26T11:44:37.589Z,1.13
2022-07-26T11:47:13.633Z,1.02
2022-07-26T11:50:00.818Z,1.00
2022-07-26T11:52:31.358Z,0.93
2022-07-26T11:54:59.835Z,0.80
2022-07-26T11:57:31.674Z,0.80
2022-07-26T12:00:02.843Z,0.88
2022-07-26T12:02:31.488Z,1.00
2022-07-26T12:05:15.794Z,1.40
2022-07-26T12:07:55.255Z,1.30
2022-07-26T12:10:24.495Z,1.00
2022-07-26T12:13:08.491Z,0.65
2022-07-26T12:15:50.752Z,0.93
2022-07-26T12:18:27.606Z,0.77
2022-07-26T12:21:04.575Z,0.75
2022-07-26T12:23:45.750Z,0.70
2022-07-26T12:26:21.427Z,0.88
2022-07-26T12:28:49.983Z,0.60
2022-07-26T12:31:27.158Z,1.20
2022-07-26T12:33:56.085Z,0.80
2022-07-26T12:36:27.963Z,0.93
2022-07-26T12:38:58.297Z,1.08
2022-07-26T12:41:36.850Z,1.20
2022-07-26T12:44:06.459Z,1.10
2022-07-26T12:46:37.085Z,0.90
2022-07-26T12:49:06.426Z,1.00
2022-07-26T12:51:34.953Z,0.90
2022-07-26T12:54:04.029Z,1.17
2022-07-26T12:56:32.257Z,1.08
2022-07-26T12:59:02.397Z,0.98
2022-07-26T13:01:31.221Z,1.10
2022-07-26T13:04:01.729Z,1.00
2022-07-26T13:06:30.031Z,0.93
2022-07-26T13:08:58.618Z,0.98
2022-07-26T13:11:26.780Z,1.05
2022-07-26T13:13:55.910Z,1.00
2022-07-26T13:16:24.083Z,1.10
2022-07-26T13:18:52.651Z,0.80
2022-07-26T13:21:22.196Z,0.90
2022-07-26T13:23:50.742Z,0.75
2022-07-26T13:26:18.895Z,0.90
2022-07-26T13:28:49.783Z,0.90
2022-07-26T13:31:18.406Z,0.90
2022-07-26T13:33:47.431Z,0.90
2022-07-26T13:36:15.975Z,0.90
2022-07-26T13:38:45.620Z,0.63
2022-07-26T13:41:14.204Z,1.00
2022-07-26T13:43:42.371Z,0.70
2022-07-26T13:46:10.650Z,0.98
2022-07-26T13:48:48.046Z,0.70
2022-07-26T13:51:48.505Z,0.60
2022-07-26T13:54:19.903Z,0.75
2022-07-26T13:56:48.664Z,0.70
2022-07-26T13:59:17.697Z,0.70
2022-07-26T14:01:46.473Z,0.63
2022-07-26T14:04:15.937Z,0.90
2022-07-26T14:06:44.722Z,1.70
2022-07-26T14:09:13.754Z,1.30
2022-07-26T14:11:43.858Z,1.33
2022-07-26T14:14:13.247Z,1.17
2022-07-26T14:16:42.597Z,1.00
2022-07-26T14:19:10.821Z,0.80
2022-07-26T14:21:47.499Z,0.70
2022-07-26T14:24:29.010Z,0.40
2022-07-26T14:26:59.822Z,0.65
2022-07-26T14:29:30.961Z,0.90
2022-07-26T14:31:59.134Z,0.85
2022-07-26T14:34:27.969Z,0.50
2022-07-26T14:36:56.098Z,0.60
2022-07-26T14:39:24.332Z,0.65
2022-07-26T14:41:52.525Z,0.80
2022-07-26T14:44:22.363Z,0.80
2022-07-26T14:46:50.463Z,0.55
2022-07-26T14:49:18.841Z,0.43
2022-07-26T14:51:48.081Z,0.65
2022-07-26T14:54:19.090Z,0.65
2022-07-26T14:56:48.210Z,0.70
2022-07-26T14:59:17.046Z,0.35
2022-07-26T15:01:46.911Z,0.52
2022-07-26T15:04:15.161Z,0.63
2022-07-26T15:06:43.259Z,0.50
2022-07-26T15:09:11.389Z,0.55
2022-07-26T15:11:39.606Z,0.30
2022-07-26T15:14:08.424Z,0.60
2022-07-26T15:16:36.749Z,0.80
2022-07-26T15:19:07.173Z,0.47
2022-07-26T15:21:35.701Z,0.50
2022-07-26T15:24:04.357Z,0.60
2022-07-26T15:26:32.488Z,0.40
2022-07-26T15:29:00.662Z,0.50
2022-07-26T15:31:36.799Z,0.60
2022-07-26T15:34:08.758Z,0.50
2022-07-26T15:36:38.226Z,0.43
2022-07-26T15:39:16.725Z,0.70
2022-07-26T15:41:46.137Z,0.50
2022-07-26T15:44:16.298Z,0.80
2022-07-26T15:46:46.231Z,1.20
2022-07-26T15:49:18.721Z,0.93
2022-07-26T15:51:47.455Z,0.80
2022-07-26T15:54:16.491Z,0.90
2022-07-26T15:56:45.750Z,0.47
2022-07-26T15:59:14.164Z,0.70
2022-07-26T16:01:42.416Z,0.60
2022-07-26T16:04:11.501Z,0.80
2022-07-26T16:06:42.434Z,0.80
2022-07-26T16:09:17.250Z,0.82
2022-07-26T16:11:46.570Z,0.85
2022-07-26T16:14:15.154Z,0.70
2022-07-26T16:16:45.735Z,0.80
2022-07-26T16:19:14.477Z,0.60
2022-07-26T16:21:44.744Z,0.88
2022-07-26T16:24:12.955Z,0.73
2022-07-26T16:26:42.907Z,0.93
2022-07-26T16:29:11.979Z,0.60
2022-07-26T16:31:41.702Z,1.00
2022-07-26T16:34:10.677Z,0.90
2022-07-26T16:36:39.353Z,1.65
2022-07-26T16:39:10.148Z,5.70
2022-07-26T16:41:38.708Z,2.47
2022-07-26T16:44:07.076Z,1.50
2022-07-26T16:46:35.708Z,1.30
2022-07-26T16:49:04.715Z,1.08
2022-07-26T16:51:33.596Z,0.90
2022-07-26T16:54:01.729Z,22.52
2022-07-26T16:56:31.759Z,20.05
2022-07-26T16:59:00.200Z,7.32
2022-07-26T17:01:28.830Z,3.60
2022-07-26T17:03:57.017Z,3.03
2022-07-26T17:06:25.108Z,2.13
2022-07-26T17:08:53.186Z,1.88
2022-07-26T17:11:21.465Z,1.38
2022-07-26T17:13:51.352Z,1.33
2022-07-26T17:16:24.257Z,1.30
2022-07-26T17:18:53.759Z,1.23
2022-07-26T17:21:22.502Z,0.77
2022-07-26T17:23:51.816Z,1.20
2022-07-26T17:26:20.879Z,1.10
2022-07-26T17:28:50.849Z,1.20
2022-07-26T17:31:18.922Z,0.80
2022-07-26T17:33:47.431Z,1.10
2022-07-26T17:36:24.365Z,1.08
2022-07-26T17:38:53.372Z,1.00
2022-07-26T17:41:23.794Z,1.00
2022-07-26T17:44:03.310Z,0.70
2022-07-26T17:46:32.991Z,0.98
2022-07-26T17:49:01.414Z,0.75
2022-07-26T17:51:30.030Z,0.77
2022-07-26T17:53:58.112Z,1.00
2022-07-26T17:56:26.628Z,0.90
2022-07-26T17:58:54.752Z,0.70
2022-07-26T18:01:24.898Z,0.70
2022-07-26T18:03:53.057Z,0.98
2022-07-26T18:06:21.835Z,0.70
2022-07-26T18:08:49.970Z,0.60
2022-07-26T18:11:18.546Z,0.70
2022-07-26T18:13:46.607Z,1.10
2022-07-26T18:16:15.427Z,0.95
2022-07-26T18:18:45.429Z,0.90
2022-07-26T18:21:13.517Z,0.90
2022-07-26T18:23:54.832Z,0.95
2022-07-26T18:26:29.738Z,0.90
2022-07-26T18:28:57.852Z,0.80
2022-07-26T18:31:26.109Z,0.60
2022-07-26T18:33:55.707Z,0.68
2022-07-26T18:36:23.815Z,1.15
2022-07-26T18:38:52.307Z,0.90
2022-07-26T18:41:20.636Z,1.00
2022-07-26T18:43:48.839Z,1.60
2022-07-26T18:46:17.436Z,1.38
2022-07-26T18:48:45.586Z,1.10
2022-07-26T18:51:15.805Z,0.77
2022-07-26T18:53:43.881Z,0.75
2022-07-26T18:56:12.404Z,1.20
2022-07-26T18:58:40.495Z,0.90
2022-07-26T19:01:09.210Z,0.63
2022-07-26T19:03:37.388Z,1.08
2022-07-26T19:06:06.822Z,0.75
2022-07-26T19:08:36.357Z,0.70
2022-07-26T19:11:05.029Z,1.00
2022-07-26T19:13:33.133Z,0.80
2022-07-26T19:16:01.258Z,0.75
2022-07-26T19:18:31.297Z,0.70
2022-07-26T19:20:59.389Z,1.00
2022-07-26T19:23:28.013Z,0.68
2022-07-26T19:25:57.507Z,0.43
2022-07-26T19:28:25.987Z,0.57
2022-07-26T19:30:54.533Z,0.88
2022-07-26T19:33:22.644Z,0.88
2022-07-26T19:35:51.171Z,0.85
2022-07-26T19:38:19.219Z,0.70
2022-07-26T19:40:48.073Z,0.70
2022-07-26T19:43:17.512Z,0.88
2022-07-26T19:45:46.207Z,0.73
2022-07-26T19:48:15.710Z,0.80
2022-07-26T19:50:43.819Z,0.60
2022-07-26T19:53:11.884Z,1.08
2022-07-26T19:55:41.782Z,0.88
2022-07-26T19:58:10.427Z,0.75
2022-07-26T20:00:40.369Z,0.77
2022-07-26T20:03:08.525Z,0.73
2022-07-26T20:05:40.034Z,0.73
2022-07-26T20:08:08.206Z,0.88
2022-07-26T20:10:36.739Z,0.73
2022-07-26T20:13:05.312Z,0.93
2022-07-26T20:15:33.382Z,0.90
2022-07-26T20:18:04.549Z,0.80
2022-07-26T20:20:32.878Z,0.80
2022-07-26T20:23:02.649Z,1.00
2022-07-26T20:25:32.106Z,0.93
2022-07-26T20:28:00.909Z,0.90
2022-07-26T20:30:29.828Z,1.20
2022-07-26T20:32:58.367Z,0.93
2022-07-26T20:35:27.800Z,0.70
2022-07-26T20:37:56.014Z,0.90
2022-07-26T20:40:27.743Z,1.20
2022-07-26T20:42:56.365Z,0.75
2022-07-26T20:45:25.188Z,0.80
2022-07-26T20:47:53.620Z,0.90
2022-07-26T20:50:23.414Z,0.90
2022-07-26T20:52:53.535Z,1.20
2022-07-26T20:55:22.915Z,0.88
2022-07-26T20:57:51.113Z,1.10
2022-07-26T21:00:20.260Z,1.00
2022-07-26T21:02:48.487Z,1.00
2022-07-26T21:05:17.037Z,1.08
2022-07-26T21:07:55.192Z,1.08
2022-07-26T21:10:30.530Z,0.95
2022-07-26T21:13:01.466Z,0.88
2022-07-26T21:15:29.883Z,1.30
2022-07-26T21:17:58.173Z,0.98
2022-07-26T21:20:26.426Z,1.20
2022-07-26T21:23:03.626Z,0.80
2022-07-26T21:25:42.948Z,1.13
2022-07-26T21:28:11.039Z,1.10
2022-07-26T21:30:39.179Z,1.10
2022-07-26T21:33:08.360Z,1.00
2022-07-26T21:35:36.442Z,0.88
2022-07-26T21:38:04.556Z,1.00
2022-07-26T21:40:33.046Z,1.10
2022-07-26T21:43:02.953Z,0.77
2022-07-26T21:45:31.538Z,0.80
2022-07-26T21:47:59.625Z,0.80
2022-07-26T21:50:27.990Z,1.05
2022-07-26T21:52:56.111Z,0.90
2022-07-26T21:55:24.636Z,1.00
2022-07-26T21:57:52.693Z,1.02
2022-07-26T22:00:22.584Z,0.70
2022-07-26T22:02:50.879Z,1.00
2022-07-26T22:05:38.828Z,1.10
2022-07-26T22:08:09.072Z,0.85
2022-07-26T22:10:44.151Z,0.82
2022-07-26T22:13:13.302Z,1.00
2022-07-26T22:15:43.978Z,0.98
2022-07-26T22:18:12.072Z,0.55
2022-07-26T22:20:42.852Z,1.00
2022-07-26T22:23:13.743Z,1.23
2022-07-26T22:25:42.471Z,1.10
2022-07-26T22:28:11.903Z,1.50
2022-07-26T22:30:40.681Z,0.90
2022-07-26T22:33:12.234Z,1.20
2022-07-26T22:35:40.846Z,1.27
2022-07-26T22:38:10.848Z,1.10
2022-07-26T22:40:40.469Z,1.00
2022-07-26T22:43:09.543Z,1.05
2022-07-26T22:45:39.013Z,1.05
2022-07-26T22:48:10.342Z,0.90
2022-07-26T22:50:39.823Z,1.30
2022-07-26T22:53:08.083Z,1.00
2022-07-26T22:55:36.626Z,1.20
2022-07-26T22:58:05.219Z,1.30
2022-07-26T23:00:33.411Z,1.40
2022-07-26T23:03:01.541Z,1.13
2022-07-26T23:05:45.194Z,1.08
2022-07-26T23:08:46.555Z,1.00
2022-07-26T23:11:03.457Z,1.20
2022-07-26T23:13:32.019Z,1.30
2022-07-26T23:16:01.905Z,0.90
2022-07-26T23:18:31.197Z,1.02
2022-07-26T23:21:01.211Z,1.33
2022-07-26T23:23:30.267Z,1.33
2022-07-26T23:25:59.878Z,1.60
2022-07-26T23:28:36.083Z,1.10
2022-07-26T23:31:11.516Z,1.48
2022-07-26T23:33:53.120Z,1.50
2022-07-26T23:36:25.988Z,1.40
2022-07-26T23:38:54.242Z,1.20
2022-07-26T23:41:23.450Z,1.70
2022-07-26T23:43:52.298Z,1.35
2022-07-26T23:46:20.517Z,1.48
2022-07-26T23:48:49.479Z,2.10
2022-07-26T23:51:19.470Z,1.60
2022-07-26T23:53:49.469Z,1.58
2022-07-26T23:56:18.332Z,1.40
2022-07-26T23:58:46.751Z,1.20
